sensor_id;sensor_type;location;lat;lon;timestamp;P1;durP1;ratioP1;P2;durP2;ratioP2
30635;SDS011;17400;52.392;9.750;2022-07-29T04:01:26;5.45;;;1.50;;
30635;SDS011;17400;52.392;9.750;2022-07-29T04:03:55;3.30;;;1.30;;
30635;SDS011;17400;52.392;9.750;2022-07-29T04:06:24;2.28;;;1.77;;
30635;SDS011;17400;52.392;9.750;2022-07-29T04:08:52;1.92;;;1.40;;
30635;SDS011;17400;52.392;9.750;2022-07-29T04:11:20;2.92;;;1.25;;
30635;SDS011;17400;52.392;9.750;2022-07-29T04:13:50;2.85;;;1.60;;
30635;SDS011;17400;52.392;9.750;2022-07-29T04:16:17;2.50;;;1.40;;
30635;SDS011;17400;52.392;9.750;2022-07-29T04:18:46;2.60;;;1.77;;
30635;SDS011;17400;52.392;9.750;2022-07-29T04:21:14;2.17;;;1.40;;
30635;SDS011;17400;52.392;9.750;2022-07-29T04:23:42;1.90;;;1.40;;
30635;SDS011;17400;52.392;9.750;2022-07-29T04:26:19;2.28;;;1.38;;
30635;SDS011;17400;52.392;9.750;2022-07-29T04:28:47;2.72;;;1.55;;
30635;SDS011;17400;52.392;9.750;2022-07-29T04:31:15;4.07;;;1.35;;
30635;SDS011;17400;52.392;9.750;2022-07-29T04:33:50;2.65;;;1.90;;
30635;SDS011;17400;52.392;9.750;2022-07-29T04:36:18;3.08;;;1.25;;
30635;SDS011;17400;52.392;9.750;2022-07-29T04:38:55;3.47;;;2.03;;
30635;SDS011;17400;52.392;9.750;2022-07-29T04:41:23;3.30;;;1.88;;
30635;SDS011;17400;52.392;9.750;2022-07-29T04:43:58;2.58;;;1.52;;
30635;SDS011;17400;52.392;9.750;2022-07-29T04:46:27;3.00;;;1.80;;
30635;SDS011;17400;52.392;9.750;2022-07-29T04:48:56;4.43;;;1.55;;
30635;SDS011;17400;52.392;9.750;2022-07-29T04:51:24;4.47;;;1.50;;
30635;SDS011;17400;52.392;9.750;2022-07-29T04:53:52;3.03;;;1.75;;
30635;SDS011;17400;52.392;9.750;2022-07-29T04:56:19;3.17;;;1.52;;
30635;SDS011;17400;52.392;9.750;2022-07-29T04:58:47;2.92;;;1.90;;
30635;SDS011;17400;52.392;9.750;2022-07-29T05:01:14;3.00;;;1.42;;
30635;SDS011;17400;52.392;9.750;2022-07-29T05:03:42;4.80;;;2.45;;
30635;SDS011;17400;52.392;9.750;2022-07-29T05:06:11;3.42;;;1.70;;
30635;SDS011;17400;52.392;9.750;2022-07-29T05:08:39;4.07;;;1.70;;
30635;SDS011;17400;52.392;9.750;2022-07-29T05:11:07;3.88;;;2.08;;
30635;SDS011;17400;52.392;9.750;2022-07-29T05:13:38;3.83;;;1.83;;
30635;SDS011;17400;52.392;9.750;2022-07-29T05:16:12;2.17;;;1.58;;
30635;SDS011;17400;52.392;9.750;2022-07-29T05:18:40;3.80;;;2.28;;
30635;SDS011;17400;52.392;9.750;2022-07-29T05:21:08;8.00;;;1.80;;
30635;SDS011;17400;52.392;9.750;2022-07-29T05:23:37;4.32;;;1.73;;
30635;SDS011;17400;52.392;9.750;2022-07-29T05:26:04;5.90;;;2.10;;
30635;SDS011;17400;52.392;9.750;2022-07-29T05:28:32;5.22;;;1.80;;
30635;SDS011;17400;52.392;9.750;2022-07-29T05:31:01;2.10;;;1.80;;
30635;SDS011;17400;52.392;9.750;2022-07-29T05:33:29;3.55;;;1.80;;
30635;SDS011;17400;52.392;9.750;2022-07-29T05:36:02;3.08;;;1.27;;
30635;SDS011;17400;52.392;9.750;2022-07-29T05:38:31;3.70;;;1.77;;
30635;SDS011;17400;52.392;9.750;2022-07-29T05:41:00;3.60;;;1.38;;
30635;SDS011;17400;52.392;9.750;2022-07-29T05:43:28;1.85;;;1.40;;
30635;SDS011;17400;52.392;9.750;2022-07-29T05:45:56;3.38;;;2.10;;
30635;SDS011;17400;52.392;9.750;2022-07-29T05:48:24;2.53;;;1.75;;
30635;SDS011;17400;52.392;9.750;2022-07-29T05:50:52;3.35;;;1.90;;
30635;SDS011;17400;52.392;9.750;2022-07-29T05:53:19;4.57;;;3.08;;
30635;SDS011;17400;52.392;9.750;2022-07-29T05:55:47;2.55;;;1.85;;
30635;SDS011;17400;52.392;9.750;2022-07-29T05:58:17;9.73;;;2.40;;
30635;SDS011;17400;52.392;9.750;2022-07-29T06:00:44;4.43;;;2.35;;
30635;SDS011;17400;52.392;9.750;2022-07-29T06:03:12;3.95;;;1.73;;
30635;SDS011;17400;52.392;9.750;2022-07-29T06:05:40;5.55;;;2.15;;
30635;SDS011;17400;52.392;9.750;2022-07-29T06:08:08;3.42;;;2.03;;
30635;SDS011;17400;52.392;9.750;2022-07-29T06:10:35;2.13;;;1.60;;
30635;SDS011;17400;52.392;9.750;2022-07-29T06:13:03;6.70;;;1.73;;
30635;SDS011;17400;52.392;9.750;2022-07-29T06:15:32;2.78;;;1.60;;
30635;SDS011;17400;52.392;9.750;2022-07-29T06:18:00;5.25;;;2.05;;
30635;SDS011;17400;52.392;9.750;2022-07-29T06:20:28;4.20;;;1.63;;
30635;SDS011;17400;52.392;9.750;2022-07-29T06:22:58;3.13;;;1.98;;
30635;SDS011;17400;52.392;9.750;2022-07-29T06:25:26;4.30;;;1.95;;
30635;SDS011;17400;52.392;9.750;2022-07-29T06:27:55;2.97;;;2.00;;
30635;SDS011;17400;52.392;9.750;2022-07-29T06:30:23;3.67;;;1.60;;
30635;SDS011;17400;52.392;9.750;2022-07-29T06:32:53;3.22;;;2.05;;
30635;SDS011;17400;52.392;9.750;2022-07-29T06:35:21;3.63;;;1.55;;
30635;SDS011;17400;52.392;9.750;2022-07-29T06:38:07;4.30;;;2.13;;
30635;SDS011;17400;52.392;9.750;2022-07-29T06:40:55;4.05;;;1.58;;
30635;SDS011;17400;52.392;9.750;2022-07-29T06:43:30;5.75;;;1.80;;
30635;SDS011;17400;52.392;9.750;2022-07-29T06:46:17;3.67;;;2.50;;
30635;SDS011;17400;52.392;9.750;2022-07-29T06:48:47;5.57;;;1.90;;
30635;SDS011;17400;52.392;9.750;2022-07-29T06:51:15;2.88;;;2.00;;
30635;SDS011;17400;52.392;9.750;2022-07-29T06:53:48;2.60;;;1.85;;
30635;SDS011;17400;52.392;9.750;2022-07-29T06:56:29;3.63;;;1.42;;
30635;SDS011;17400;52.392;9.750;2022-07-29T06:59:03;3.45;;;1.95;;
30635;SDS011;17400;52.392;9.750;2022-07-29T07:01:31;5.68;;;2.08;;
30635;SDS011;17400;52.392;9.750;2022-07-29T07:04:00;4.28;;;2.13;;
30635;SDS011;17400;52.392;9.750;2022-07-29T07:06:29;3.72;;;2.22;;
30635;SDS011;17400;52.392;9.750;2022-07-29T07:08:57;3.72;;;2.20;;
30635;SDS011;17400;52.392;9.750;2022-07-29T07:11:25;9.38;;;2.95;;
30635;SDS011;17400;52.392;9.750;2022-07-29T07:13:53;4.70;;;2.17;;
30635;SDS011;17400;52.392;9.750;2022-07-29T07:16:27;6.07;;;2.25;;
30635;SDS011;17400;52.392;9.750;2022-07-29T07:18:55;7.20;;;3.03;;
30635;SDS011;17400;52.392;9.750;2022-07-29T07:21:24;3.47;;;2.38;;
30635;SDS011;17400;52.392;9.750;2022-07-29T07:23:56;4.00;;;2.08;;
30635;SDS011;17400;52.392;9.750;2022-07-29T07:26:24;2.50;;;1.70;;
30635;SDS011;17400;52.392;9.750;2022-07-29T07:28:51;4.07;;;2.05;;
30635;SDS011;17400;52.392;9.750;2022-07-29T07:31:19;3.97;;;2.47;;
30635;SDS011;17400;52.392;9.750;2022-07-29T07:33:47;4.10;;;2.53;;
30635;SDS011;17400;52.392;9.750;2022-07-29T07:36:14;3.75;;;2.03;;
30635;SDS011;17400;52.392;9.750;2022-07-29T07:38:43;6.00;;;2.70;;
30635;SDS011;17400;52.392;9.750;2022-07-29T07:41:11;6.35;;;2.65;;
30635;SDS011;17400;52.392;9.750;2022-07-29T07:43:39;3.03;;;2.10;;
30635;SDS011;17400;52.392;9.750;2022-07-29T07:46:06;4.82;;;2.50;;
30635;SDS011;17400;52.392;9.750;2022-07-29T07:48:34;2.53;;;1.65;;
30635;SDS011;17400;52.392;9.750;2022-07-29T07:51:02;3.65;;;3.03;;
30635;SDS011;17400;52.392;9.750;2022-07-29T07:53:30;6.05;;;2.38;;
30635;SDS011;17400;52.392;9.750;2022-07-29T07:55:59;4.53;;;1.92;;
30635;SDS011;17400;52.392;9.750;2022-07-29T07:58:42;3.13;;;1.75;;
30635;SDS011;17400;52.392;9.750;2022-07-29T08:01:09;4.32;;;2.30;;
30635;SDS011;17400;52.392;9.750;2022-07-29T08:03:37;4.32;;;2.22;;
30635;SDS011;17400;52.392;9.750;2022-07-29T08:06:05;3.17;;;1.98;;
30635;SDS011;17400;52.392;9.750;2022-07-29T08:08:33;5.78;;;2.72;;
30635;SDS011;17400;52.392;9.750;2022-07-29T08:11:02;4.85;;;2.08;;
30635;SDS011;17400;52.392;9.750;2022-07-29T08:13:34;2.63;;;2.22;;
30635;SDS011;17400;52.392;9.750;2022-07-29T08:16:02;7.70;;;3.03;;
30635;SDS011;17400;52.392;9.750;2022-07-29T08:18:38;3.17;;;2.08;;
30635;SDS011;17400;52.392;9.750;2022-07-29T08:21:07;2.78;;;2.38;;
30635;SDS011;17400;52.392;9.750;2022-07-29T08:23:34;3.45;;;2.00;;
30635;SDS011;17400;52.392;9.750;2022-07-29T08:26:15;4.65;;;2.10;;
30635;SDS011;17400;52.392;9.750;2022-07-29T08:28:44;7.25;;;2.58;;
30635;SDS011;17400;52.392;9.750;2022-07-29T08:31:15;4.15;;;1.98;;
30635;SDS011;17400;52.392;9.750;2022-07-29T08:33:43;3.47;;;2.58;;
30635;SDS011;17400;52.392;9.750;2022-07-29T08:36:11;4.60;;;2.17;;
30635;SDS011;17400;52.392;9.750;2022-07-29T08:38:40;3.95;;;2.55;;
30635;SDS011;17400;52.392;9.750;2022-07-29T08:41:07;4.72;;;2.28;;
30635;SDS011;17400;52.392;9.750;2022-07-29T08:43:36;5.05;;;2.50;;
30635;SDS011;17400;52.392;9.750;2022-07-29T08:46:04;2.35;;;1.63;;
30635;SDS011;17400;52.392;9.750;2022-07-29T08:48:32;3.22;;;2.03;;
30635;SDS011;17400;52.392;9.750;2022-07-29T08:50:59;4.18;;;2.00;;
30635;SDS011;17400;52.392;9.750;2022-07-29T08:53:29;5.90;;;2.78;;
30635;SDS011;17400;52.392;9.750;2022-07-29T08:55:57;18.08;;;2.85;;
30635;SDS011;17400;52.392;9.750;2022-07-29T08:58:25;6.93;;;2.95;;
30635;SDS011;17400;52.392;9.750;2022-07-29T09:00:55;7.05;;;3.53;;
30635;SDS011;17400;52.392;9.750;2022-07-29T09:03:24;6.82;;;2.60;;
30635;SDS011;17400;52.392;9.750;2022-07-29T09:05:57;4.10;;;2.38;;
30635;SDS011;17400;52.392;9.750;2022-07-29T09:08:25;6.72;;;3.17;;
30635;SDS011;17400;52.392;9.750;2022-07-29T09:10:53;3.85;;;2.33;;
30635;SDS011;17400;52.392;9.750;2022-07-29T09:13:22;6.10;;;2.53;;
30635;SDS011;17400;52.392;9.750;2022-07-29T09:15:49;6.35;;;3.10;;
30635;SDS011;17400;52.392;9.750;2022-07-29T09:21:12;4.28;;;2.47;;
30635;SDS011;17400;52.392;9.750;2022-07-29T09:24:11;4.25;;;2.60;;
30635;SDS011;17400;52.392;9.750;2022-07-29T09:26:42;4.10;;;2.47;;
30635;SDS011;17400;52.392;9.750;2022-07-29T09:29:11;5.78;;;2.35;;
30635;SDS011;17400;52.392;9.750;2022-07-29T09:31:41;3.83;;;2.95;;
30635;SDS011;17400;52.392;9.750;2022-07-29T09:34:10;6.93;;;2.83;;
30635;SDS011;17400;52.392;9.750;2022-07-29T09:36:41;8.52;;;2.50;;
30635;SDS011;17400;52.392;9.750;2022-07-29T09:39:10;6.63;;;2.97;;
30635;SDS011;17400;52.392;9.750;2022-07-29T09:41:44;3.90;;;2.60;;
30635;SDS011;17400;52.392;9.750;2022-07-29T09:44:13;3.83;;;1.85;;
30635;SDS011;17400;52.392;9.750;2022-07-29T09:46:47;4.95;;;2.22;;
30635;SDS011;17400;52.392;9.750;2022-07-29T09:49:23;3.95;;;2.25;;
30635;SDS011;17400;52.392;9.750;2022-07-29T09:52:05;4.28;;;2.45;;
30635;SDS011;17400;52.392;9.750;2022-07-29T09:54:34;3.55;;;1.92;;
30635;SDS011;17400;52.392;9.750;2022-07-29T09:57:07;3.47;;;2.35;;
30635;SDS011;17400;52.392;9.750;2022-07-29T09:59:38;6.00;;;2.60;;
30635;SDS011;17400;52.392;9.750;2022-07-29T10:02:16;5.53;;;2.80;;
30635;SDS011;17400;52.392;9.750;2022-07-29T10:04:49;5.78;;;2.53;;
30635;SDS011;17400;52.392;9.750;2022-07-29T10:07:18;8.77;;;2.50;;
30635;SDS011;17400;52.392;9.750;2022-07-29T10:09:49;4.50;;;2.80;;
30635;SDS011;17400;52.392;9.750;2022-07-29T10:12:20;3.85;;;2.50;;
30635;SDS011;17400;52.392;9.750;2022-07-29T10:14:49;3.60;;;2.50;;
30635;SDS011;17400;52.392;9.750;2022-07-29T10:17:17;3.72;;;3.10;;
30635;SDS011;17400;52.392;9.750;2022-07-29T10:19:45;2.97;;;1.92;;
30635;SDS011;17400;52.392;9.750;2022-07-29T10:22:15;3.42;;;2.10;;
30635;SDS011;17400;52.392;9.750;2022-07-29T10:25:04;2.97;;;2.20;;
30635;SDS011;17400;52.392;9.750;2022-07-29T10:27:32;3.85;;;2.63;;
30635;SDS011;17400;52.392;9.750;2022-07-29T10:29:59;3.78;;;2.47;;
30635;SDS011;17400;52.392;9.750;2022-07-29T10:32:44;7.10;;;2.75;;
30635;SDS011;17400;52.392;9.750;2022-07-29T10:35:47;5.07;;;2.92;;
30635;SDS011;17400;52.392;9.750;2022-07-29T10:38:43;3.60;;;2.67;;
30635;SDS011;17400;52.392;9.750;2022-07-29T10:41:29;3.45;;;2.17;;
30635;SDS011;17400;52.392;9.750;2022-07-29T10:44:24;4.05;;;2.78;;
30635;SDS011;17400;52.392;9.750;2022-07-29T10:46:54;6.10;;;3.08;;
30635;SDS011;17400;52.392;9.750;2022-07-29T10:49:23;3.63;;;2.75;;
30635;SDS011;17400;52.392;9.750;2022-07-29T10:51:57;7.70;;;2.58;;
30635;SDS011;17400;52.392;9.750;2022-07-29T10:57:27;3.35;;;2.13;;
30635;SDS011;17400;52.392;9.750;2022-07-29T11:00:26;5.30;;;2.65;;
30635;SDS011;17400;52.392;9.750;2022-07-29T11:02:56;4.07;;;2.63;;
30635;SDS011;17400;52.392;9.750;2022-07-29T11:05:24;2.83;;;2.33;;
30635;SDS011;17400;52.392;9.750;2022-07-29T11:14:04;3.58;;;2.08;;
30635;SDS011;17400;52.392;9.750;2022-07-29T11:16:57;6.53;;;3.42;;
30635;SDS011;17400;52.392;9.750;2022-07-29T11:19:31;4.97;;;2.90;;
30635;SDS011;17400;52.392;9.750;2022-07-29T11:22:01;5.10;;;2.85;;
30635;SDS011;17400;52.392;9.750;2022-07-29T11:24:31;3.42;;;2.53;;
30635;SDS011;17400;52.392;9.750;2022-07-29T11:27:19;7.93;;;2.72;;
30635;SDS011;17400;52.392;9.750;2022-07-29T11:29:55;7.38;;;2.85;;
30635;SDS011;17400;52.392;9.750;2022-07-29T11:32:35;2.63;;;2.28;;
30635;SDS011;17400;52.392;9.750;2022-07-29T11:35:14;4.70;;;2.95;;
30635;SDS011;17400;52.392;9.750;2022-07-29T11:43:51;4.53;;;2.50;;
30635;SDS011;17400;52.392;9.750;2022-07-29T11:49:12;3.30;;;2.40;;
30635;SDS011;17400;52.392;9.750;2022-07-29T11:51:50;2.88;;;2.35;;
30635;SDS011;17400;52.392;9.750;2022-07-29T11:54:21;3.20;;;2.22;;
30635;SDS011;17400;52.392;9.750;2022-07-29T11:57:11;4.75;;;2.83;;
30635;SDS011;17400;52.392;9.750;2022-07-29T11:59:42;3.80;;;2.60;;
30635;SDS011;17400;52.392;9.750;2022-07-29T12:02:12;3.08;;;2.28;;
30635;SDS011;17400;52.392;9.750;2022-07-29T12:05:02;4.43;;;2.13;;
30635;SDS011;17400;52.392;9.750;2022-07-29T12:07:37;3.78;;;2.72;;
30635;SDS011;17400;52.392;9.750;2022-07-29T12:10:11;4.05;;;2.58;;
30635;SDS011;17400;52.392;9.750;2022-07-29T12:12:55;5.35;;;2.90;;
30635;SDS011;17400;52.392;9.750;2022-07-29T12:15:22;3.67;;;1.83;;
30635;SDS011;17400;52.392;9.750;2022-07-29T12:18:13;4.32;;;2.20;;
30635;SDS011;17400;52.392;9.750;2022-07-29T12:20:43;3.25;;;2.13;;
30635;SDS011;17400;52.392;9.750;2022-07-29T12:23:12;3.35;;;2.20;;
30635;SDS011;17400;52.392;9.750;2022-07-29T12:25:42;4.25;;;2.10;;
30635;SDS011;17400;52.392;9.750;2022-07-29T12:28:15;5.15;;;2.65;;
30635;SDS011;17400;52.392;9.750;2022-07-29T12:30:53;4.32;;;2.13;;
30635;SDS011;17400;52.392;9.750;2022-07-29T12:33:23;4.53;;;2.58;;
30635;SDS011;17400;52.392;9.750;2022-07-29T12:35:53;3.03;;;2.30;;
30635;SDS011;17400;52.392;9.750;2022-07-29T12:38:33;4.68;;;2.65;;
30635;SDS011;17400;52.392;9.750;2022-07-29T12:41:02;2.63;;;1.90;;
30635;SDS011;17400;52.392;9.750;2022-07-29T12:43:30;4.97;;;2.45;;
30635;SDS011;17400;52.392;9.750;2022-07-29T12:46:00;5.40;;;2.75;;
30635;SDS011;17400;52.392;9.750;2022-07-29T12:48:41;3.30;;;2.05;;
30635;SDS011;17400;52.392;9.750;2022-07-29T12:51:10;7.97;;;3.30;;
30635;SDS011;17400;52.392;9.750;2022-07-29T12:53:40;4.30;;;2.20;;
30635;SDS011;17400;52.392;9.750;2022-07-29T12:56:14;3.13;;;2.40;;
30635;SDS011;17400;52.392;9.750;2022-07-29T12:59:10;5.30;;;2.58;;
30635;SDS011;17400;52.392;9.750;2022-07-29T13:01:40;3.45;;;2.10;;
30635;SDS011;17400;52.392;9.750;2022-07-29T13:04:09;5.30;;;3.88;;
30635;SDS011;17400;52.392;9.750;2022-07-29T13:06:38;4.78;;;2.58;;
30635;SDS011;17400;52.392;9.750;2022-07-29T13:09:08;4.50;;;2.50;;
30635;SDS011;17400;52.392;9.750;2022-07-29T13:11:38;5.18;;;2.72;;
30635;SDS011;17400;52.392;9.750;2022-07-29T13:14:14;4.63;;;2.75;;
30635;SDS011;17400;52.392;9.750;2022-07-29T13:17:00;2.70;;;1.85;;
30635;SDS011;17400;52.392;9.750;2022-07-29T13:19:36;2.97;;;2.25;;
30635;SDS011;17400;52.392;9.750;2022-07-29T13:22:07;3.88;;;2.28;;
30635;SDS011;17400;52.392;9.750;2022-07-29T13:24:44;7.05;;;3.92;;
30635;SDS011;17400;52.392;9.750;2022-07-29T13:27:14;5.70;;;2.28;;
30635;SDS011;17400;52.392;9.750;2022-07-29T13:29:42;2.80;;;2.22;;
30635;SDS011;17400;52.392;9.750;2022-07-29T13:32:10;9.35;;;3.45;;
30635;SDS011;17400;52.392;9.750;2022-07-29T13:34:40;8.48;;;4.43;;
30635;SDS011;17400;52.392;9.750;2022-07-29T13:37:08;3.78;;;2.72;;
30635;SDS011;17400;52.392;9.750;2022-07-29T13:39:35;5.85;;;2.60;;
30635;SDS011;17400;52.392;9.750;2022-07-29T13:42:03;5.25;;;3.17;;
30635;SDS011;17400;52.392;9.750;2022-07-29T13:44:36;7.70;;;2.92;;
30635;SDS011;17400;52.392;9.750;2022-07-29T13:47:04;4.65;;;3.42;;
30635;SDS011;17400;52.392;9.750;2022-07-29T13:49:32;6.28;;;3.30;;
30635;SDS011;17400;52.392;9.750;2022-07-29T13:52:01;5.55;;;3.00;;
30635;SDS011;17400;52.392;9.750;2022-07-29T13:54:29;3.90;;;2.72;;
30635;SDS011;17400;52.392;9.750;2022-07-29T13:56:57;4.03;;;3.03;;
30635;SDS011;17400;52.392;9.750;2022-07-29T13:59:24;6.90;;;4.30;;
30635;SDS011;17400;52.392;9.750;2022-07-29T14:01:52;4.97;;;2.58;;
30635;SDS011;17400;52.392;9.750;2022-07-29T14:04:20;9.43;;;3.88;;
30635;SDS011;17400;52.392;9.750;2022-07-29T14:06:49;3.97;;;2.90;;
30635;SDS011;17400;52.392;9.750;2022-07-29T14:09:18;5.65;;;2.63;;
30635;SDS011;17400;52.392;9.750;2022-07-29T14:11:46;6.38;;;3.97;;
30635;SDS011;17400;52.392;9.750;2022-07-29T14:14:16;5.07;;;2.83;;
30635;SDS011;17400;52.392;9.750;2022-07-29T14:16:44;6.85;;;3.58;;
30635;SDS011;17400;52.392;9.750;2022-07-29T14:19:15;4.70;;;3.20;;
30635;SDS011;17400;52.392;9.750;2022-07-29T14:21:43;8.50;;;3.15;;
30635;SDS011;17400;52.392;9.750;2022-07-29T14:24:11;6.78;;;3.58;;
30635;SDS011;17400;52.392;9.750;2022-07-29T14:26:48;7.07;;;3.40;;
30635;SDS011;17400;52.392;9.750;2022-07-29T14:29:16;7.18;;;2.58;;
30635;SDS011;17400;52.392;9.750;2022-07-29T14:31:43;7.50;;;3.38;;
30635;SDS011;17400;52.392;9.750;2022-07-29T14:34:11;3.55;;;2.35;;
30635;SDS011;17400;52.392;9.750;2022-07-29T14:36:38;4.63;;;3.30;;
30635;SDS011;17400;52.392;9.750;2022-07-29T14:39:06;4.53;;;3.03;;
30635;SDS011;17400;52.392;9.750;2022-07-29T14:41:34;4.53;;;2.78;;
30635;SDS011;17400;52.392;9.750;2022-07-29T14:44:03;3.88;;;3.00;;
30635;SDS011;17400;52.392;9.750;2022-07-29T14:46:31;6.53;;;3.42;;
30635;SDS011;17400;52.392;9.750;2022-07-29T14:48:59;8.43;;;2.50;;
30635;SDS011;17400;52.392;9.750;2022-07-29T14:51:27;6.32;;;2.92;;
30635;SDS011;17400;52.392;9.750;2022-07-29T14:53:57;3.05;;;2.30;;
30635;SDS011;17400;52.392;9.750;2022-07-29T14:56:25;8.70;;;3.00;;
30635;SDS011;17400;52.392;9.750;2022-07-29T14:59:13;4.55;;;2.75;;
30635;SDS011;17400;52.392;9.750;2022-07-29T15:01:41;3.95;;;2.88;;
30635;SDS011;17400;52.392;9.750;2022-07-29T15:04:08;4.47;;;2.45;;
30635;SDS011;17400;52.392;9.750;2022-07-29T15:06:36;5.30;;;3.38;;
30635;SDS011;17400;52.392;9.750;2022-07-29T15:09:04;3.42;;;2.40;;
30635;SDS011;17400;52.392;9.750;2022-07-29T15:11:32;4.25;;;2.80;;
30635;SDS011;17400;52.392;9.750;2022-07-29T15:14:04;4.75;;;2.90;;
30635;SDS011;17400;52.392;9.750;2022-07-29T15:16:34;6.45;;;2.83;;
30635;SDS011;17400;52.392;9.750;2022-07-29T15:19:02;4.82;;;2.50;;
30635;SDS011;17400;52.392;9.750;2022-07-29T15:21:30;4.45;;;3.20;;
30635;SDS011;17400;52.392;9.750;2022-07-29T15:23:58;3.92;;;2.75;;
30635;SDS011;17400;52.392;9.750;2022-07-29T15:26:26;7.63;;;2.88;;
30635;SDS011;17400;52.392;9.750;2022-07-29T15:28:53;5.03;;;2.70;;
30635;SDS011;17400;52.392;9.750;2022-07-29T15:31:22;4.78;;;2.95;;
30635;SDS011;17400;52.392;9.750;2022-07-29T15:33:51;5.22;;;2.58;;
30635;SDS011;17400;52.392;9.750;2022-07-29T15:36:24;6.68;;;3.85;;
30635;SDS011;17400;52.392;9.750;2022-07-29T15:39:12;4.07;;;2.67;;
30635;SDS011;17400;52.392;9.750;2022-07-29T15:41:40;4.43;;;3.00;;
30635;SDS011;17400;52.392;9.750;2022-07-29T15:44:07;5.93;;;2.95;;
30635;SDS011;17400;52.392;9.750;2022-07-29T15:46:35;4.47;;;3.40;;
30635;SDS011;17400;52.392;9.750;2022-07-29T15:49:22;5.05;;;3.38;;
30635;SDS011;17400;52.392;9.750;2022-07-29T15:52:14;4.82;;;2.80;;
30635;SDS011;17400;52.392;9.750;2022-07-29T15:54:44;5.85;;;3.13;;
30635;SDS011;17400;52.392;9.750;2022-07-29T15:57:12;4.93;;;3.35;;
30635;SDS011;17400;52.392;9.750;2022-07-29T15:59:40;4.60;;;3.00;;
30635;SDS011;17400;52.392;9.750;2022-07-29T16:02:07;8.38;;;3.50;;
30635;SDS011;17400;52.392;9.750;2022-07-29T16:04:37;8.15;;;3.15;;
30635;SDS011;17400;52.392;9.750;2022-07-29T16:07:05;5.10;;;3.38;;
30635;SDS011;17400;52.392;9.750;2022-07-29T16:09:33;6.43;;;3.60;;
30635;SDS011;17400;52.392;9.750;2022-07-29T16:12:00;5.60;;;3.60;;
30635;SDS011;17400;52.392;9.750;2022-07-29T16:14:35;5.63;;;3.20;;
30635;SDS011;17400;52.392;9.750;2022-07-29T16:17:03;5.40;;;3.72;;
30635;SDS011;17400;52.392;9.750;2022-07-29T16:19:31;7.75;;;3.28;;
30635;SDS011;17400;52.392;9.750;2022-07-29T16:22:00;5.15;;;2.95;;
30635;SDS011;17400;52.392;9.750;2022-07-29T16:24:28;3.40;;;2.75;;
30635;SDS011;17400;52.392;9.750;2022-07-29T16:26:59;5.07;;;2.97;;
30635;SDS011;17400;52.392;9.750;2022-07-29T16:29:27;3.63;;;2.28;;
30635;SDS011;17400;52.392;9.750;2022-07-29T16:31:55;7.40;;;3.47;;
30635;SDS011;17400;52.392;9.750;2022-07-29T16:34:23;3.63;;;2.10;;
30635;SDS011;17400;52.392;9.750;2022-07-29T16:36:50;5.03;;;2.58;;
30635;SDS011;17400;52.392;9.750;2022-07-29T16:39:19;5.10;;;2.72;;
30635;SDS011;17400;52.392;9.750;2022-07-29T16:41:47;5.65;;;3.00;;
30635;SDS011;17400;52.392;9.750;2022-07-29T16:44:14;4.28;;;3.03;;
30635;SDS011;17400;52.392;9.750;2022-07-29T16:46:43;6.00;;;2.70;;
30635;SDS011;17400;52.392;9.750;2022-07-29T16:49:11;3.47;;;2.55;;
30635;SDS011;17400;52.392;9.750;2022-07-29T16:51:44;3.95;;;2.95;;
30635;SDS011;17400;52.392;9.750;2022-07-29T16:54:13;6.60;;;3.00;;
30635;SDS011;17400;52.392;9.750;2022-07-29T16:56:42;2.70;;;2.25;;
30635;SDS011;17400;52.392;9.750;2022-07-29T16:59:09;4.10;;;2.83;;
30635;SDS011;17400;52.392;9.750;2022-07-29T17:01:39;6.18;;;3.25;;
30635;SDS011;17400;52.392;9.750;2022-07-29T17:04:07;9.10;;;2.78;;
30635;SDS011;17400;52.392;9.750;2022-07-29T17:06:36;5.20;;;2.80;;
30635;SDS011;17400;52.392;9.750;2022-07-29T17:09:06;3.70;;;2.53;;
30635;SDS011;17400;52.392;9.750;2022-07-29T17:11:35;4.35;;;2.92;;
30635;SDS011;17400;52.392;9.750;2022-07-29T17:14:21;4.10;;;2.45;;
30635;SDS011;17400;52.392;9.750;2022-07-29T17:16:51;4.40;;;3.20;;
30635;SDS011;17400;52.392;9.750;2022-07-29T17:19:26;3.80;;;2.50;;
30635;SDS011;17400;52.392;9.750;2022-07-29T17:21:56;3.33;;;2.55;;
30635;SDS011;17400;52.392;9.750;2022-07-29T17:24:38;5.45;;;2.92;;
30635;SDS011;17400;52.392;9.750;2022-07-29T17:27:06;8.88;;;4.15;;
30635;SDS011;17400;52.392;9.750;2022-07-29T17:29:35;5.30;;;3.63;;
30635;SDS011;17400;52.392;9.750;2022-07-29T17:32:05;11.15;;;5.18;;
30635;SDS011;17400;52.392;9.750;2022-07-29T17:34:34;4.47;;;2.92;;
30635;SDS011;17400;52.392;9.750;2022-07-29T17:37:04;7.15;;;4.90;;
30635;SDS011;17400;52.392;9.750;2022-07-29T17:39:33;7.43;;;5.28;;
30635;SDS011;17400;52.392;9.750;2022-07-29T17:42:01;6.43;;;3.55;;
30635;SDS011;17400;52.392;9.750;2022-07-29T17:44:29;8.18;;;5.03;;
30635;SDS011;17400;52.392;9.750;2022-07-29T17:47:03;6.22;;;4.00;;
30635;SDS011;17400;52.392;9.750;2022-07-29T17:49:33;7.35;;;3.35;;
30635;SDS011;17400;52.392;9.750;2022-07-29T17:52:01;6.05;;;3.60;;
30635;SDS011;17400;52.392;9.750;2022-07-29T17:54:30;4.88;;;3.55;;
30635;SDS011;17400;52.392;9.750;2022-07-29T17:56:57;3.88;;;2.90;;
30635;SDS011;17400;52.392;9.750;2022-07-29T17:59:26;4.70;;;3.03;;
30635;SDS011;17400;52.392;9.750;2022-07-29T18:01:53;6.47;;;2.92;;
30635;SDS011;17400;52.392;9.750;2022-07-29T18:04:22;5.28;;;2.78;;
30635;SDS011;17400;52.392;9.750;2022-07-29T18:06:50;3.92;;;2.20;;
30635;SDS011;17400;52.392;9.750;2022-07-29T18:09:19;4.63;;;3.70;;
30635;SDS011;17400;52.392;9.750;2022-07-29T18:11:46;8.38;;;3.92;;
30635;SDS011;17400;52.392;9.750;2022-07-29T18:14:14;5.32;;;3.40;;
30635;SDS011;17400;52.392;9.750;2022-07-29T18:16:42;6.40;;;3.13;;
30635;SDS011;17400;52.392;9.750;2022-07-29T18:19:09;6.15;;;3.72;;
30635;SDS011;17400;52.392;9.750;2022-07-29T18:21:38;6.32;;;3.92;;
30635;SDS011;17400;52.392;9.750;2022-07-29T18:24:20;6.15;;;3.30;;
30635;SDS011;17400;52.392;9.750;2022-07-29T18:26:48;8.10;;;3.65;;
30635;SDS011;17400;52.392;9.750;2022-07-29T18:29:16;8.48;;;4.05;;
30635;SDS011;17400;52.392;9.750;2022-07-29T18:31:43;5.93;;;3.78;;
30635;SDS011;17400;52.392;9.750;2022-07-29T18:34:11;5.65;;;3.65;;
30635;SDS011;17400;52.392;9.750;2022-07-29T18:36:40;8.13;;;3.63;;
30635;SDS011;17400;52.392;9.750;2022-07-29T18:39:07;6.93;;;3.75;;
30635;SDS011;17400;52.392;9.750;2022-07-29T18:41:38;5.70;;;3.53;;
30635;SDS011;17400;52.392;9.750;2022-07-29T18:44:15;5.32;;;3.28;;
30635;SDS011;17400;52.392;9.750;2022-07-29T18:46:43;9.52;;;3.63;;
30635;SDS011;17400;52.392;9.750;2022-07-29T18:49:13;4.68;;;3.47;;
30635;SDS011;17400;52.392;9.750;2022-07-29T18:51:42;7.25;;;4.13;;
30635;SDS011;17400;52.392;9.750;2022-07-29T18:54:10;3.97;;;2.63;;
30635;SDS011;17400;52.392;9.750;2022-07-29T18:56:37;8.15;;;3.38;;
30635;SDS011;17400;52.392;9.750;2022-07-29T18:59:06;6.00;;;3.70;;
30635;SDS011;17400;52.392;9.750;2022-07-29T19:01:33;4.35;;;2.97;;
30635;SDS011;17400;52.392;9.750;2022-07-29T19:04:02;3.53;;;2.55;;
30635;SDS011;17400;52.392;9.750;2022-07-29T19:06:30;5.50;;;3.10;;
30635;SDS011;17400;52.392;9.750;2022-07-29T19:08:59;6.70;;;2.90;;
30635;SDS011;17400;52.392;9.750;2022-07-29T19:11:26;7.32;;;3.40;;
30635;SDS011;17400;52.392;9.750;2022-07-29T19:13:55;7.55;;;3.53;;
30635;SDS011;17400;52.392;9.750;2022-07-29T19:16:22;6.45;;;3.67;;
30635;SDS011;17400;52.392;9.750;2022-07-29T19:18:50;3.83;;;3.03;;
30635;SDS011;17400;52.392;9.750;2022-07-29T19:21:18;5.45;;;3.35;;
30635;SDS011;17400;52.392;9.750;2022-07-29T19:23:46;9.60;;;3.88;;
30635;SDS011;17400;52.392;9.750;2022-07-29T19:26:33;7.38;;;3.70;;
30635;SDS011;17400;52.392;9.750;2022-07-29T19:29:01;5.65;;;3.92;;
30635;SDS011;17400;52.392;9.750;2022-07-29T19:31:30;4.97;;;2.95;;